Terminal Aerodrome Forecast
Issued by NWS

Home | Current Version | Previous Version | Text Only | Print | Product List | Glossary On
Versions: 1 2 3 4 5 6 7 8 9 10 11 12
000
FTUS45 KABQ 191100
TAFROW
TAF
KROW 191140Z 1912/2012 35008KT P6SM SKC
     FM191530 36013G23KT P6SM SKC
     FM191800 01009KT P6SM SKC
     FM192300 06007KT P6SM FEW100
     FM200200 09006KT P6SM SCT100=

USA.gov is the U.S. government's official web portal to all federal, state and local government web resources and services.